Time;durP1;ratioP1;P1;durP2;ratioP2;P2;SDS_P1;SDS_P2;PMS_P1;PMS_P2;Temp;Humidity;BMP_temperature;BMP_pressure;BME280_temperature;BME280_humidity;BME280_pressure;Samples;Min_cycle;Max_cycle;Signal;HPM_P1;HPM_P2
2022/12/26 00:26:38;;;;;;;;;;;8.70;99.90;;;;;;6277826;22;19915;-91
2022/12/26 00:29:03;;;;;;;;;;;8.60;99.90;;;;;;6229694;22;20316;-92
2022/12/26 01:18:00;;;;;;;;;;;8.70;99.90;;;;;;6253080;22;19915;-93
2022/12/26 01:36:45;;;;;;;;;;;8.70;99.90;;;;;;6281075;22;19965;-93
2022/12/26 01:39:11;;;;;;;;;;;8.70;99.90;;;;;;6256279;22;19916;-96
2022/12/26 01:41:39;;;;;;;;;;;8.70;99.90;;;;;;6256247;22;19911;-91
2022/12/26 01:46:42;;;;;;;;;;;8.70;99.90;;;;;;6282689;22;19915;-92
2022/12/26 01:49:28;;;;;;;;;;;8.70;99.90;;;;;;6255228;22;19946;-93
2022/12/26 01:51:58;;;;;;;;;;;8.70;99.90;;;;;;6256236;22;19915;-94
2022/12/26 01:54:26;;;;;;;;;;;8.70;99.90;;;;;;6235339;22;19915;-93
2022/12/26 01:56:52;;;;;;;;;;;8.70;99.90;;;;;;6261567;22;19915;-94
2022/12/26 01:59:24;;;;;;;;;;;8.70;99.90;;;;;;6252591;22;20403;-93
2022/12/26 02:08:03;;;;;;;;;;;8.70;99.90;;;;;;6277886;22;19915;-93
2022/12/26 02:10:42;;;;;;;;;;;8.70;99.90;;;;;;6253065;22;19990;-92
2022/12/26 02:13:11;;;;;;;;;;;8.70;99.90;;;;;;6254773;22;19922;-92
2022/12/26 02:15:40;;;;;;;;;;;8.70;99.90;;;;;;6228223;22;19922;-93
2022/12/26 02:18:06;;;;;;;;;;;8.70;99.90;;;;;;6252487;22;19919;-90
2022/12/26 02:20:38;;;;;;;;;;;8.70;99.90;;;;;;6226822;22;19916;-95
2022/12/26 02:23:06;;;;;;;;;;;8.70;99.90;;;;;;6255755;22;19922;-95
2022/12/26 02:25:44;;;;;;;;;;;8.70;99.90;;;;;;6256288;22;19945;-94
2022/12/26 02:28:19;;;;;;;;;;;8.70;99.90;;;;;;6257300;22;19922;-93
2022/12/26 02:30:53;;;;;;;;;;;8.70;99.90;;;;;;6254772;22;19915;-93
2022/12/26 02:33:18;;;;;;;;;;;8.70;99.90;;;;;;6254671;22;19915;-95
2022/12/26 02:35:50;;;;;;;;;;;8.70;99.90;;;;;;6254638;22;20325;-91
2022/12/26 02:38:25;;;;;;;;;;;8.70;99.90;;;;;;6254630;22;19929;-95
2022/12/26 02:41:10;;;;;;;;;;;8.70;99.90;;;;;;6256952;22;19945;-94
2022/12/26 02:43:45;;;;;;;;;;;8.70;99.90;;;;;;6251920;22;19922;-93
2022/12/26 03:13:09;;;;;;;;;;;8.70;99.90;;;;;;6284596;22;19915;-93
2022/12/26 04:19:25;;;;;;;;;;;8.90;99.90;;;;;;6285531;22;19922;-94
2022/12/26 05:11:18;;;;;;;;;;;9.00;99.90;;;;;;6286577;22;19921;-96
2022/12/26 05:13:44;;;;;;;;;;;9.00;99.90;;;;;;6260761;22;19914;-94
2022/12/26 05:30:11;;;;;;;;;;;9.10;99.90;;;;;;6287924;22;19921;-96
2022/12/26 05:42:58;;;;;;;;;;;9.00;99.90;;;;;;6318069;22;19922;-94
2022/12/26 05:48:44;;;;;;;;;;;9.00;99.90;;;;;;6247927;22;19916;-93
2022/12/26 05:51:09;;;;;;;;;;;9.00;99.90;;;;;;6285948;22;20281;-95
2022/12/26 05:53:35;;;;;;;;;;;9.00;99.90;;;;;;6291591;22;19914;-95
2022/12/26 05:56:03;;;;;;;;;;;9.00;99.90;;;;;;6289425;22;19918;-94
2022/12/26 05:58:29;;;;;;;;;;;9.00;99.90;;;;;;6289415;22;19921;-90
2022/12/26 06:01:02;;;;;;;;;;;9.00;99.90;;;;;;6289195;22;19914;-91
2022/12/26 06:03:28;;;;;;;;;;;9.00;99.90;;;;;;6288753;22;19914;-91
2022/12/26 06:05:56;;;;;;;;;;;9.00;99.90;;;;;;6289496;22;19926;-95
2022/12/26 06:08:22;;;;;;;;;;;9.00;99.90;;;;;;6289117;22;19988;-93
2022/12/26 06:10:47;;;;;;;;;;;9.00;99.90;;;;;;6289928;22;20332;-92
2022/12/26 06:13:13;;;;;;;;;;;9.00;99.90;;;;;;6290373;22;19914;-94
2022/12/26 06:15:38;;;;;;;;;;;9.00;99.90;;;;;;6289226;22;19936;-94
2022/12/26 06:18:24;;;;;;;;;;;9.00;99.90;;;;;;6288732;22;19919;-92
2022/12/26 06:34:14;;;;;;;;;;;9.00;99.90;;;;;;6284997;22;20304;-90
2022/12/26 06:36:40;;;;;;;;;;;9.00;99.90;;;;;;6258543;22;19915;-92
2022/12/26 06:39:05;;;;;;;;;;;9.00;99.90;;;;;;6257932;22;19937;-91
2022/12/26 06:41:31;;;;;;;;;;;9.00;99.90;;;;;;6258588;22;19915;-90
2022/12/26 06:43:57;;;;;;;;;;;9.00;99.90;;;;;;6259046;22;19915;-94
2022/12/26 06:46:23;;;;;;;;;;;9.00;99.90;;;;;;6259298;22;19967;-92
2022/12/26 06:48:49;;;;;;;;;;;9.00;99.90;;;;;;6258958;22;19993;-95
2022/12/26 06:51:39;;;;;;;;;;;;;;;;;;;;;
2022/12/26 06:54:08;;;;;;;;;;;9.00;99.90;;;;;;6261184;22;20309;-92
2022/12/26 06:57:38;;;;;;;;;;;9.00;99.90;;;;;;6257208;22;19950;-93
2022/12/26 07:03:17;;;;;;;;;;;9.10;99.90;;;;;;6238315;22;19921;-92
2022/12/26 07:05:43;;;;;;;;;;;9.10;99.90;;;;;;6262037;22;19955;-94
2022/12/26 07:13:19;;;;;;;;;;;9.00;99.90;;;;;;6282826;22;19915;-93
2022/12/26 07:15:45;;;;;;;;;;;9.10;99.90;;;;;;6232193;22;19978;-90
2022/12/26 07:18:10;;;;;;;;;;;9.10;99.90;;;;;;6233763;22;19915;-90
2022/12/26 07:20:36;;;;;;;;;;;9.10;99.90;;;;;;6231040;22;19922;-91
2022/12/26 07:23:02;;;;;;;;;;;9.10;99.90;;;;;;6256451;22;19935;-91
2022/12/26 07:25:33;;;;;;;;;;;9.10;99.90;;;;;;6232118;22;19923;-93
2022/12/26 07:28:05;;;;;;;;;;;9.10;99.90;;;;;;6255682;22;19922;-92
2022/12/26 07:30:31;;;;;;;;;;;9.20;99.90;;;;;;6206425;22;19915;-92
2022/12/26 07:32:56;;;;;;;;;;;9.20;99.90;;;;;;6229296;22;19915;-94
2022/12/26 07:35:22;;;;;;;;;;;9.20;99.90;;;;;;6229232;22;19918;-92
2022/12/26 07:37:48;;;;;;;;;;;9.20;99.90;;;;;;6229189;22;19942;-94
2022/12/26 07:40:14;;;;;;;;;;;9.20;99.90;;;;;;6253524;22;20365;-95
2022/12/26 07:42:40;;;;;;;;;;;9.20;99.90;;;;;;6228394;22;19994;-96
2022/12/26 07:45:06;;;;;;;;;;;9.20;99.90;;;;;;6203698;22;19935;-94
2022/12/26 07:48:11;;;;;;;;;;;;;;;;;;;;;
2022/12/26 07:50:52;;;;;;;;;;;9.20;99.90;;;;;;6239915;22;19945;-92
2022/12/26 07:53:18;;;;;;;;;;;9.20;99.90;;;;;;6227199;22;19933;-91
2022/12/26 07:55:58;;;;;;;;;;;9.20;99.90;;;;;;6228727;22;20344;-95
2022/12/26 07:58:40;;;;;;;;;;;9.20;99.90;;;;;;6165267;23;19967;-93
2022/12/26 08:01:06;;;;;;;;;;;9.10;99.90;;;;;;6140447;23;20285;-92
2022/12/26 08:03:32;;;;;;;;;;;9.20;99.90;;;;;;6137555;23;19983;-91
2022/12/26 08:40:57;;;;;;;;;;;9.20;99.90;;;;;;6286776;22;19914;-91
2022/12/26 08:51:35;;;;;;;;;;;9.20;99.90;;;;;;6249637;22;19915;-94
2022/12/26 08:54:01;;;;;;;;;;;9.20;99.90;;;;;;6223328;23;19915;-94
2022/12/26 08:56:29;;;;;;;;;;;9.30;99.90;;;;;;6221558;23;19919;-95
2022/12/26 08:58:58;;;;;;;;;;;9.30;99.90;;;;;;6245673;23;19923;-94
2022/12/26 09:01:27;;;;;;;;;;;9.30;99.90;;;;;;6221998;23;19919;-93
2022/12/26 09:03:54;;;;;;;;;;;9.30;99.90;;;;;;6221253;23;20387;-92
2022/12/26 09:06:20;;;;;;;;;;;9.30;99.90;;;;;;6222156;23;19916;-94
2022/12/26 09:08:45;;;;;;;;;;;9.30;99.90;;;;;;6222076;23;20352;-93
2022/12/26 09:16:28;;;;;;;;;;;9.20;99.90;;;;;;6279106;22;19915;-93
2022/12/26 09:18:56;;;;;;;;;;;9.20;99.90;;;;;;6202563;22;19990;-93
2022/12/26 09:21:21;;;;;;;;;;;9.20;99.90;;;;;;6227904;22;19911;-94
2022/12/26 09:23:47;;;;;;;;;;;9.20;99.90;;;;;;6229130;22;20291;-94
2022/12/26 12:39:41;;;;;;;;;;;;;;;;;;;;;
2022/12/26 12:42:40;;;;;;;;;;;7.40;99.90;;;;;;6224870;23;19915;-91
2022/12/26 12:45:05;;;;;;;;;;;7.40;99.90;;;;;;6092738;23;19955;-93
2022/12/26 12:47:45;;;;;;;;;;;7.40;99.90;;;;;;6199023;23;19911;-93
2022/12/26 12:50:16;;;;;;;;;;;7.40;99.90;;;;;;6197532;23;20329;-95
2022/12/26 12:53:05;;;;;;;;;;;7.40;99.90;;;;;;6202284;23;19922;-92
2022/12/26 14:14:57;;;;;;;;;;;7.10;99.90;;;;;;6247936;22;19935;-92
2022/12/26 14:17:35;;;;;;;;;;;7.10;99.90;;;;;;6195781;23;19981;-91
2022/12/26 14:20:00;;;;;;;;;;;7.10;99.90;;;;;;6196024;23;19950;-89
2022/12/26 14:22:46;;;;;;;;;;;7.10;99.90;;;;;;6195509;23;19922;-90
2022/12/26 14:25:31;;;;;;;;;;;7.10;99.90;;;;;;6196271;23;19919;-90
2022/12/26 14:27:56;;;;;;;;;;;7.00;99.90;;;;;;6196492;23;19916;-93
2022/12/26 14:30:54;;;;;;;;;;;;;;;;;;;;;
2022/12/26 14:33:29;;;;;;;;;;;6.90;99.90;;;;;;6221128;23;19957;-92
2022/12/26 14:36:00;;;;;;;;;;;6.90;99.90;;;;;;6196478;23;19994;-90
2022/12/26 14:38:29;;;;;;;;;;;6.90;99.90;;;;;;6196044;23;19919;-90
2022/12/26 14:40:59;;;;;;;;;;;6.80;99.90;;;;;;6196040;23;19916;-89
2022/12/26 14:43:29;;;;;;;;;;;6.80;99.90;;;;;;6196315;23;19920;-91
2022/12/26 14:46:27;;;;;;;;;;;6.80;99.90;;;;;;6196464;23;19920;-92
2022/12/26 14:48:53;;;;;;;;;;;6.70;99.90;;;;;;6196892;23;19916;-91
2022/12/26 14:51:19;;;;;;;;;;;6.70;99.90;;;;;;6196648;23;19989;-91
2022/12/26 14:54:05;;;;;;;;;;;6.70;99.90;;;;;;6196632;23;20333;-92
2022/12/26 14:56:35;;;;;;;;;;;6.70;99.90;;;;;;6195134;23;20325;-91
2022/12/26 14:59:39;;;;;;;;;;;6.60;99.90;;;;;;6196414;23;19919;-92
2022/12/26 15:02:19;;;;;;;;;;;6.60;99.90;;;;;;6048532;23;19928;-92
2022/12/26 15:04:48;;;;;;;;;;;6.60;99.90;;;;;;6072608;23;20109;-91
2022/12/26 15:07:37;;;;;;;;;;;6.60;99.90;;;;;;6146552;23;19915;-93
2022/12/26 15:10:21;;;;;;;;;;;6.60;99.90;;;;;;6126438;23;19916;-91
2022/12/26 15:13:16;;;;;;;;;;;6.50;99.90;;;;;;6195452;23;19961;-91
2022/12/26 15:16:01;;;;;;;;;;;6.50;99.90;;;;;;6209016;23;20245;-91
2022/12/26 15:44:24;;;;;;;;;;;6.10;99.90;;;;;;6249586;22;20241;-88
2022/12/26 15:47:02;;;;;;;;;;;6.10;99.90;;;;;;6224461;22;19922;-94
2022/12/26 15:49:38;;;;;;;;;;;6.10;99.90;;;;;;6251210;22;19973;-93
2022/12/26 15:52:28;;;;;;;;;;;6.00;99.90;;;;;;6225994;22;19921;-91
2022/12/26 15:58:41;;;;;;;;;;;6.00;99.90;;;;;;6087674;23;19917;-89
2022/12/26 16:01:08;;;;;;;;;;;6.00;99.90;;;;;;6225391;22;19915;-90
2022/12/26 16:03:54;;;;;;;;;;;6.00;99.90;;;;;;6225755;22;19921;-91
2022/12/26 16:06:39;;;;;;;;;;;6.00;99.90;;;;;;6225576;22;19922;-91
2022/12/26 16:09:23;;;;;;;;;;;5.90;99.90;;;;;;6225587;22;19938;-89
2022/12/26 16:11:52;;;;;;;;;;;5.90;99.90;;;;;;6251075;22;19919;-90
2022/12/26 16:14:24;;;;;;;;;;;5.80;99.90;;;;;;6225541;22;19919;-91
2022/12/26 16:16:50;;;;;;;;;;;5.80;99.90;;;;;;6225311;22;19915;-89
2022/12/26 16:19:26;;;;;;;;;;;5.80;99.90;;;;;;6200665;22;20033;-93
2022/12/26 16:30:05;;;;;;;;;;;5.80;99.90;;;;;;6306538;22;19922;-92
2022/12/26 16:32:34;;;;;;;;;;;5.70;99.90;;;;;;6255512;22;19915;-91
2022/12/26 16:35:00;;;;;;;;;;;5.70;99.90;;;;;;6255578;22;20002;-91
2022/12/26 16:37:26;;;;;;;;;;;5.70;99.90;;;;;;6255835;22;19915;-91
2022/12/26 16:40:10;;;;;;;;;;;5.70;99.90;;;;;;6255490;22;19915;-92
2022/12/26 16:42:36;;;;;;;;;;;5.70;99.90;;;;;;6255521;22;19922;-90
2022/12/26 16:50:17;;;;;;;;;;;5.60;99.90;;;;;;6246721;22;19915;-90
2022/12/26 16:52:43;;;;;;;;;;;5.60;99.90;;;;;;6194871;23;19926;-90
2022/12/26 16:55:27;;;;;;;;;;;5.70;99.90;;;;;;6194992;23;19955;-90
2022/12/26 19:55:45;;;;;;;;;;;5.10;99.90;;;;;;6276739;22;19915;-90
2022/12/26 19:58:11;;;;;;;;;;;5.10;99.90;;;;;;6226084;22;19915;-88
2022/12/26 20:01:05;;;;;;;;;;;5.10;99.90;;;;;;6252007;22;19915;-92
2022/12/26 20:03:31;;;;;;;;;;;5.10;99.90;;;;;;6252256;22;19919;-90
2022/12/26 22:20:27;;;;;;;;;;;4.60;99.90;;;;;;6243345;22;19915;-96
2022/12/26 23:49:28;;;;;;;;;;;4.50;99.90;;;;;;6273028;22;19916;-88
2022/12/26 23:52:09;;;;;;;;;;;4.50;99.90;;;;;;6225551;22;19915;-90
2022/12/26 23:55:00;;;;;;;;;;;4.50;99.90;;;;;;6225033;22;19916;-89
2022/12/26 23:57:49;;;;;;;;;;;4.50;99.90;;;;;;6225329;22;19922;-93
